sensor_id;sensor_type;location;lat;lon;timestamp;P1;durP1;ratioP1;P2;durP2;ratioP2
74532;SDS011;63012;51.096;-115.366;2023-07-02T00:00:01;7.30;;;2.10;;
74532;SDS011;63012;51.096;-115.366;2023-07-02T00:02:31;11.20;;;3.20;;
74532;SDS011;63012;51.096;-115.366;2023-07-02T00:04:58;6.80;;;2.50;;
74532;SDS011;63012;51.096;-115.366;2023-07-02T00:07:26;9.20;;;2.30;;
74532;SDS011;63012;51.096;-115.366;2023-07-02T00:09:53;7.90;;;1.90;;
74532;SDS011;63012;51.096;-115.366;2023-07-02T00:12:20;11.90;;;3.10;;
74532;SDS011;63012;51.096;-115.366;2023-07-02T00:14:47;12.40;;;2.70;;
74532;SDS011;63012;51.096;-115.366;2023-07-02T00:17:14;10.50;;;3.00;;
74532;SDS011;63012;51.096;-115.366;2023-07-02T00:19:41;13.60;;;3.40;;
74532;SDS011;63012;51.096;-115.366;2023-07-02T00:22:08;9.90;;;2.80;;
74532;SDS011;63012;51.096;-115.366;2023-07-02T00:24:36;12.10;;;3.10;;
74532;SDS011;63012;51.096;-115.366;2023-07-02T00:27:03;10.50;;;2.40;;
74532;SDS011;63012;51.096;-115.366;2023-07-02T00:29:31;15.00;;;3.20;;
74532;SDS011;63012;51.096;-115.366;2023-07-02T00:31:57;9.50;;;3.20;;
74532;SDS011;63012;51.096;-115.366;2023-07-02T00:34:24;10.00;;;2.70;;
74532;SDS011;63012;51.096;-115.366;2023-07-02T00:36:52;9.30;;;2.30;;
74532;SDS011;63012;51.096;-115.366;2023-07-02T00:39:19;10.80;;;2.10;;
74532;SDS011;63012;51.096;-115.366;2023-07-02T00:41:46;7.70;;;1.90;;
74532;SDS011;63012;51.096;-115.366;2023-07-02T00:44:14;8.50;;;2.00;;
74532;SDS011;63012;51.096;-115.366;2023-07-02T00:46:41;7.40;;;1.80;;
74532;SDS011;63012;51.096;-115.366;2023-07-02T00:49:08;6.60;;;1.60;;
74532;SDS011;63012;51.096;-115.366;2023-07-02T00:51:36;7.20;;;1.40;;
74532;SDS011;63012;51.096;-115.366;2023-07-02T00:54:04;6.60;;;1.80;;
74532;SDS011;63012;51.096;-115.366;2023-07-02T00:56:31;8.10;;;1.70;;
74532;SDS011;63012;51.096;-115.366;2023-07-02T00:58:58;6.70;;;1.70;;
74532;SDS011;63012;51.096;-115.366;2023-07-02T01:01:27;6.20;;;1.30;;
74532;SDS011;63012;51.096;-115.366;2023-07-02T01:04:00;5.70;;;1.10;;
74532;SDS011;63012;51.096;-115.366;2023-07-02T01:06:33;5.40;;;1.40;;
74532;SDS011;63012;51.096;-115.366;2023-07-02T01:09:03;6.40;;;1.20;;
74532;SDS011;63012;51.096;-115.366;2023-07-02T01:14:19;5.50;;;1.00;;
74532;SDS011;63012;51.096;-115.366;2023-07-02T01:16:54;7.00;;;1.30;;
74532;SDS011;63012;51.096;-115.366;2023-07-02T01:19:42;6.50;;;1.40;;
74532;SDS011;63012;51.096;-115.366;2023-07-02T01:22:24;5.40;;;1.30;;
74532;SDS011;63012;51.096;-115.366;2023-07-02T01:24:53;5.70;;;1.30;;
74532;SDS011;63012;51.096;-115.366;2023-07-02T01:27:22;5.10;;;1.00;;
74532;SDS011;63012;51.096;-115.366;2023-07-02T01:29:52;6.30;;;1.20;;
74532;SDS011;63012;51.096;-115.366;2023-07-02T01:32:20;6.00;;;1.40;;
74532;SDS011;63012;51.096;-115.366;2023-07-02T01:34:49;5.40;;;1.40;;
74532;SDS011;63012;51.096;-115.366;2023-07-02T01:37:19;6.90;;;1.30;;
74532;SDS011;63012;51.096;-115.366;2023-07-02T01:39:46;6.00;;;0.90;;
74532;SDS011;63012;51.096;-115.366;2023-07-02T01:42:16;6.60;;;1.20;;
74532;SDS011;63012;51.096;-115.366;2023-07-02T01:44:48;6.40;;;1.30;;
74532;SDS011;63012;51.096;-115.366;2023-07-02T01:47:17;5.60;;;1.20;;
74532;SDS011;63012;51.096;-115.366;2023-07-02T01:49:45;8.40;;;1.10;;
74532;SDS011;63012;51.096;-115.366;2023-07-02T01:52:12;5.20;;;1.00;;
74532;SDS011;63012;51.096;-115.366;2023-07-02T01:54:39;7.10;;;1.50;;
74532;SDS011;63012;51.096;-115.366;2023-07-02T01:57:06;7.00;;;2.80;;
74532;SDS011;63012;51.096;-115.366;2023-07-02T01:59:34;9.30;;;3.80;;
74532;SDS011;63012;51.096;-115.366;2023-07-02T02:02:02;10.50;;;5.30;;
74532;SDS011;63012;51.096;-115.366;2023-07-02T02:04:29;11.60;;;5.10;;
74532;SDS011;63012;51.096;-115.366;2023-07-02T02:06:57;12.00;;;5.30;;
74532;SDS011;63012;51.096;-115.366;2023-07-02T02:09:24;11.00;;;5.70;;
74532;SDS011;63012;51.096;-115.366;2023-07-02T02:11:54;9.70;;;5.20;;
74532;SDS011;63012;51.096;-115.366;2023-07-02T02:14:21;11.10;;;5.00;;
74532;SDS011;63012;51.096;-115.366;2023-07-02T02:16:49;12.30;;;5.80;;
74532;SDS011;63012;51.096;-115.366;2023-07-02T02:19:16;11.20;;;5.10;;
74532;SDS011;63012;51.096;-115.366;2023-07-02T02:21:43;9.40;;;5.20;;
74532;SDS011;63012;51.096;-115.366;2023-07-02T02:24:10;12.30;;;5.60;;
74532;SDS011;63012;51.096;-115.366;2023-07-02T02:26:38;10.60;;;6.00;;
74532;SDS011;63012;51.096;-115.366;2023-07-02T02:29:05;11.60;;;5.70;;
74532;SDS011;63012;51.096;-115.366;2023-07-02T02:31:32;11.10;;;5.90;;
74532;SDS011;63012;51.096;-115.366;2023-07-02T02:33:59;12.50;;;5.90;;
74532;SDS011;63012;51.096;-115.366;2023-07-02T02:36:26;10.90;;;6.00;;
74532;SDS011;63012;51.096;-115.366;2023-07-02T02:38:53;11.90;;;6.00;;
74532;SDS011;63012;51.096;-115.366;2023-07-02T02:41:20;12.10;;;6.00;;
74532;SDS011;63012;51.096;-115.366;2023-07-02T02:43:47;12.90;;;6.30;;
74532;SDS011;63012;51.096;-115.366;2023-07-02T02:46:20;12.00;;;6.30;;
74532;SDS011;63012;51.096;-115.366;2023-07-02T02:48:50;14.00;;;6.50;;
74532;SDS011;63012;51.096;-115.366;2023-07-02T02:51:17;12.20;;;6.30;;
74532;SDS011;63012;51.096;-115.366;2023-07-02T02:53:44;11.70;;;6.20;;
74532;SDS011;63012;51.096;-115.366;2023-07-02T02:56:12;10.70;;;5.70;;
74532;SDS011;63012;51.096;-115.366;2023-07-02T02:58:40;11.70;;;6.60;;
74532;SDS011;63012;51.096;-115.366;2023-07-02T03:01:07;12.20;;;6.20;;
74532;SDS011;63012;51.096;-115.366;2023-07-02T03:03:39;10.50;;;5.90;;
74532;SDS011;63012;51.096;-115.366;2023-07-02T03:06:12;12.00;;;6.20;;
74532;SDS011;63012;51.096;-115.366;2023-07-02T03:08:42;11.40;;;6.10;;
74532;SDS011;63012;51.096;-115.366;2023-07-02T03:11:09;11.10;;;6.20;;
74532;SDS011;63012;51.096;-115.366;2023-07-02T03:13:36;12.00;;;5.80;;
74532;SDS011;63012;51.096;-115.366;2023-07-02T03:16:04;11.00;;;6.20;;
74532;SDS011;63012;51.096;-115.366;2023-07-02T03:18:32;11.10;;;5.20;;
74532;SDS011;63012;51.096;-115.366;2023-07-02T03:20:59;15.20;;;5.90;;
74532;SDS011;63012;51.096;-115.366;2023-07-02T03:23:26;13.70;;;5.70;;
74532;SDS011;63012;51.096;-115.366;2023-07-02T03:25:53;13.30;;;6.00;;
74532;SDS011;63012;51.096;-115.366;2023-07-02T03:28:21;12.60;;;6.10;;
74532;SDS011;63012;51.096;-115.366;2023-07-02T03:30:47;12.20;;;5.60;;
74532;SDS011;63012;51.096;-115.366;2023-07-02T03:33:14;11.80;;;5.90;;
74532;SDS011;63012;51.096;-115.366;2023-07-02T03:35:41;11.40;;;6.20;;
74532;SDS011;63012;51.096;-115.366;2023-07-02T03:38:09;10.50;;;5.80;;
74532;SDS011;63012;51.096;-115.366;2023-07-02T03:40:36;13.00;;;5.80;;
74532;SDS011;63012;51.096;-115.366;2023-07-02T03:43:03;12.10;;;5.60;;
74532;SDS011;63012;51.096;-115.366;2023-07-02T03:45:30;12.20;;;5.90;;
74532;SDS011;63012;51.096;-115.366;2023-07-02T03:47:57;14.50;;;6.30;;
74532;SDS011;63012;51.096;-115.366;2023-07-02T03:50:25;11.90;;;5.60;;
74532;SDS011;63012;51.096;-115.366;2023-07-02T03:52:52;11.70;;;5.90;;
74532;SDS011;63012;51.096;-115.366;2023-07-02T03:55:19;10.40;;;5.70;;
74532;SDS011;63012;51.096;-115.366;2023-07-02T03:57:46;11.40;;;5.30;;
74532;SDS011;63012;51.096;-115.366;2023-07-02T04:00:14;10.50;;;5.50;;
74532;SDS011;63012;51.096;-115.366;2023-07-02T04:02:46;10.50;;;5.60;;
74532;SDS011;63012;51.096;-115.366;2023-07-02T04:05:13;11.40;;;5.60;;
74532;SDS011;63012;51.096;-115.366;2023-07-02T04:07:40;11.90;;;4.90;;
74532;SDS011;63012;51.096;-115.366;2023-07-02T04:10:08;10.20;;;5.00;;
74532;SDS011;63012;51.096;-115.366;2023-07-02T04:12:35;10.70;;;5.10;;
74532;SDS011;63012;51.096;-115.366;2023-07-02T04:15:02;10.80;;;5.20;;
74532;SDS011;63012;51.096;-115.366;2023-07-02T04:17:29;11.70;;;5.30;;
74532;SDS011;63012;51.096;-115.366;2023-07-02T04:19:59;9.20;;;5.10;;
74532;SDS011;63012;51.096;-115.366;2023-07-02T04:22:27;9.50;;;4.90;;
74532;SDS011;63012;51.096;-115.366;2023-07-02T04:24:54;12.90;;;5.00;;
74532;SDS011;63012;51.096;-115.366;2023-07-02T04:27:21;10.60;;;4.90;;
74532;SDS011;63012;51.096;-115.366;2023-07-02T04:29:48;11.50;;;4.70;;
74532;SDS011;63012;51.096;-115.366;2023-07-02T04:32:15;10.30;;;4.50;;
74532;SDS011;63012;51.096;-115.366;2023-07-02T04:34:43;10.40;;;4.80;;
74532;SDS011;63012;51.096;-115.366;2023-07-02T04:37:10;9.60;;;4.70;;
74532;SDS011;63012;51.096;-115.366;2023-07-02T04:39:37;9.50;;;4.40;;
74532;SDS011;63012;51.096;-115.366;2023-07-02T04:42:04;9.40;;;4.20;;
74532;SDS011;63012;51.096;-115.366;2023-07-02T04:44:31;9.40;;;4.60;;
74532;SDS011;63012;51.096;-115.366;2023-07-02T04:46:58;10.70;;;4.60;;
74532;SDS011;63012;51.096;-115.366;2023-07-02T04:49:27;9.00;;;4.80;;
74532;SDS011;63012;51.096;-115.366;2023-07-02T04:51:54;9.90;;;4.90;;
74532;SDS011;63012;51.096;-115.366;2023-07-02T04:54:21;11.80;;;5.00;;
74532;SDS011;63012;51.096;-115.366;2023-07-02T04:56:49;9.50;;;4.70;;
74532;SDS011;63012;51.096;-115.366;2023-07-02T04:59:16;8.40;;;4.20;;
74532;SDS011;63012;51.096;-115.366;2023-07-02T05:01:43;8.90;;;4.00;;
74532;SDS011;63012;51.096;-115.366;2023-07-02T05:04:11;9.20;;;4.50;;
74532;SDS011;63012;51.096;-115.366;2023-07-02T05:06:37;7.60;;;3.70;;
74532;SDS011;63012;51.096;-115.366;2023-07-02T05:09:05;7.50;;;3.80;;
74532;SDS011;63012;51.096;-115.366;2023-07-02T05:11:32;9.20;;;3.30;;
74532;SDS011;63012;51.096;-115.366;2023-07-02T05:13:59;8.80;;;3.80;;
74532;SDS011;63012;51.096;-115.366;2023-07-02T05:16:26;9.00;;;4.00;;
74532;SDS011;63012;51.096;-115.366;2023-07-02T05:18:53;9.70;;;4.20;;
74532;SDS011;63012;51.096;-115.366;2023-07-02T05:21:20;8.90;;;3.70;;
74532;SDS011;63012;51.096;-115.366;2023-07-02T05:23:47;9.40;;;4.10;;
74532;SDS011;63012;51.096;-115.366;2023-07-02T05:26:14;7.80;;;3.50;;
74532;SDS011;63012;51.096;-115.366;2023-07-02T05:28:41;8.70;;;4.20;;
74532;SDS011;63012;51.096;-115.366;2023-07-02T05:31:10;8.00;;;3.30;;
74532;SDS011;63012;51.096;-115.366;2023-07-02T05:33:38;7.50;;;3.40;;
74532;SDS011;63012;51.096;-115.366;2023-07-02T05:36:05;8.10;;;3.40;;
74532;SDS011;63012;51.096;-115.366;2023-07-02T05:38:32;8.70;;;3.50;;
74532;SDS011;63012;51.096;-115.366;2023-07-02T05:41:00;8.90;;;3.90;;
74532;SDS011;63012;51.096;-115.366;2023-07-02T05:43:28;7.70;;;3.40;;
74532;SDS011;63012;51.096;-115.366;2023-07-02T05:45:58;7.80;;;2.80;;
74532;SDS011;63012;51.096;-115.366;2023-07-02T05:48:28;7.90;;;3.30;;
74532;SDS011;63012;51.096;-115.366;2023-07-02T05:50:55;7.20;;;3.40;;
74532;SDS011;63012;51.096;-115.366;2023-07-02T05:53:22;8.20;;;3.40;;
74532;SDS011;63012;51.096;-115.366;2023-07-02T05:55:49;7.30;;;2.80;;
74532;SDS011;63012;51.096;-115.366;2023-07-02T05:58:16;8.40;;;3.30;;
74532;SDS011;63012;51.096;-115.366;2023-07-02T06:00:43;7.10;;;3.10;;
74532;SDS011;63012;51.096;-115.366;2023-07-02T06:03:16;9.80;;;3.30;;
74532;SDS011;63012;51.096;-115.366;2023-07-02T06:05:47;8.40;;;2.80;;
74532;SDS011;63012;51.096;-115.366;2023-07-02T06:08:18;6.90;;;3.10;;
74532;SDS011;63012;51.096;-115.366;2023-07-02T06:10:46;7.80;;;2.80;;
74532;SDS011;63012;51.096;-115.366;2023-07-02T06:13:14;7.60;;;3.30;;
74532;SDS011;63012;51.096;-115.366;2023-07-02T06:15:41;8.50;;;2.90;;
74532;SDS011;63012;51.096;-115.366;2023-07-02T06:18:08;7.50;;;2.80;;
74532;SDS011;63012;51.096;-115.366;2023-07-02T06:20:36;9.90;;;2.90;;
74532;SDS011;63012;51.096;-115.366;2023-07-02T06:23:03;6.70;;;2.90;;
74532;SDS011;63012;51.096;-115.366;2023-07-02T06:25:31;7.60;;;2.90;;
74532;SDS011;63012;51.096;-115.366;2023-07-02T06:27:59;6.20;;;2.60;;
74532;SDS011;63012;51.096;-115.366;2023-07-02T06:30:27;7.40;;;2.50;;
74532;SDS011;63012;51.096;-115.366;2023-07-02T06:32:54;7.20;;;2.10;;
74532;SDS011;63012;51.096;-115.366;2023-07-02T06:35:22;9.10;;;2.80;;
74532;SDS011;63012;51.096;-115.366;2023-07-02T06:37:49;6.50;;;2.30;;
74532;SDS011;63012;51.096;-115.366;2023-07-02T06:40:16;7.00;;;2.60;;
74532;SDS011;63012;51.096;-115.366;2023-07-02T06:42:44;7.20;;;2.50;;
74532;SDS011;63012;51.096;-115.366;2023-07-02T06:45:11;6.30;;;2.30;;
74532;SDS011;63012;51.096;-115.366;2023-07-02T06:47:38;6.90;;;2.40;;
74532;SDS011;63012;51.096;-115.366;2023-07-02T06:50:05;7.60;;;2.40;;
74532;SDS011;63012;51.096;-115.366;2023-07-02T06:52:33;6.10;;;2.40;;
74532;SDS011;63012;51.096;-115.366;2023-07-02T06:55:00;8.20;;;2.50;;
74532;SDS011;63012;51.096;-115.366;2023-07-02T06:57:27;8.70;;;2.60;;
74532;SDS011;63012;51.096;-115.366;2023-07-02T06:59:58;6.30;;;2.40;;
74532;SDS011;63012;51.096;-115.366;2023-07-02T07:02:26;8.20;;;2.50;;
74532;SDS011;63012;51.096;-115.366;2023-07-02T07:04:54;7.00;;;2.60;;
74532;SDS011;63012;51.096;-115.366;2023-07-02T07:07:20;7.30;;;2.40;;
74532;SDS011;63012;51.096;-115.366;2023-07-02T07:09:47;6.60;;;2.00;;
74532;SDS011;63012;51.096;-115.366;2023-07-02T07:12:14;6.60;;;2.60;;
74532;SDS011;63012;51.096;-115.366;2023-07-02T07:14:41;8.90;;;2.40;;
74532;SDS011;63012;51.096;-115.366;2023-07-02T07:17:09;8.30;;;2.60;;
74532;SDS011;63012;51.096;-115.366;2023-07-02T07:19:36;6.60;;;2.10;;
74532;SDS011;63012;51.096;-115.366;2023-07-02T07:22:03;7.40;;;2.20;;
74532;SDS011;63012;51.096;-115.366;2023-07-02T07:24:30;6.40;;;1.90;;
74532;SDS011;63012;51.096;-115.366;2023-07-02T07:26:57;6.60;;;2.00;;
74532;SDS011;63012;51.096;-115.366;2023-07-02T07:29:24;5.70;;;2.20;;
74532;SDS011;63012;51.096;-115.366;2023-07-02T07:31:51;6.30;;;1.80;;
74532;SDS011;63012;51.096;-115.366;2023-07-02T07:34:17;5.80;;;1.50;;
74532;SDS011;63012;51.096;-115.366;2023-07-02T07:36:44;6.40;;;1.80;;
74532;SDS011;63012;51.096;-115.366;2023-07-02T07:39:11;7.30;;;1.60;;
74532;SDS011;63012;51.096;-115.366;2023-07-02T07:41:38;5.30;;;1.70;;
74532;SDS011;63012;51.096;-115.366;2023-07-02T07:44:05;5.80;;;1.80;;
74532;SDS011;63012;51.096;-115.366;2023-07-02T07:46:32;6.00;;;1.70;;
74532;SDS011;63012;51.096;-115.366;2023-07-02T07:48:59;7.40;;;1.90;;
74532;SDS011;63012;51.096;-115.366;2023-07-02T07:51:26;6.10;;;1.50;;
74532;SDS011;63012;51.096;-115.366;2023-07-02T07:53:53;7.40;;;1.70;;
74532;SDS011;63012;51.096;-115.366;2023-07-02T07:56:21;5.10;;;1.30;;
74532;SDS011;63012;51.096;-115.366;2023-07-02T07:58:47;7.20;;;1.70;;
74532;SDS011;63012;51.096;-115.366;2023-07-02T08:01:14;4.70;;;1.60;;
74532;SDS011;63012;51.096;-115.366;2023-07-02T08:03:42;6.60;;;1.50;;
74532;SDS011;63012;51.096;-115.366;2023-07-02T08:06:09;6.80;;;1.90;;
74532;SDS011;63012;51.096;-115.366;2023-07-02T08:08:36;5.90;;;1.80;;
74532;SDS011;63012;51.096;-115.366;2023-07-02T08:11:03;5.00;;;1.70;;
74532;SDS011;63012;51.096;-115.366;2023-07-02T08:13:30;6.00;;;1.80;;
74532;SDS011;63012;51.096;-115.366;2023-07-02T08:15:57;6.20;;;1.70;;
74532;SDS011;63012;51.096;-115.366;2023-07-02T08:18:24;6.00;;;1.90;;
74532;SDS011;63012;51.096;-115.366;2023-07-02T08:20:51;5.50;;;1.80;;
74532;SDS011;63012;51.096;-115.366;2023-07-02T08:23:18;5.60;;;1.40;;
74532;SDS011;63012;51.096;-115.366;2023-07-02T08:25:45;5.90;;;1.70;;
74532;SDS011;63012;51.096;-115.366;2023-07-02T08:28:12;5.40;;;1.40;;
74532;SDS011;63012;51.096;-115.366;2023-07-02T08:30:39;5.60;;;1.40;;
74532;SDS011;63012;51.096;-115.366;2023-07-02T08:33:06;6.60;;;1.30;;
74532;SDS011;63012;51.096;-115.366;2023-07-02T08:35:33;6.00;;;1.50;;
74532;SDS011;63012;51.096;-115.366;2023-07-02T08:38:00;5.70;;;1.40;;
74532;SDS011;63012;51.096;-115.366;2023-07-02T08:40:27;4.70;;;1.20;;
74532;SDS011;63012;51.096;-115.366;2023-07-02T08:42:55;5.30;;;1.60;;
74532;SDS011;63012;51.096;-115.366;2023-07-02T08:45:23;5.40;;;1.20;;
74532;SDS011;63012;51.096;-115.366;2023-07-02T08:47:51;5.30;;;1.40;;
74532;SDS011;63012;51.096;-115.366;2023-07-02T08:50:22;4.70;;;1.60;;
74532;SDS011;63012;51.096;-115.366;2023-07-02T08:52:50;5.40;;;1.30;;
74532;SDS011;63012;51.096;-115.366;2023-07-02T08:55:19;4.60;;;1.20;;
74532;SDS011;63012;51.096;-115.366;2023-07-02T08:57:56;5.50;;;1.40;;
74532;SDS011;63012;51.096;-115.366;2023-07-02T09:00:26;4.70;;;1.30;;
74532;SDS011;63012;51.096;-115.366;2023-07-02T09:02:53;4.40;;;1.10;;
74532;SDS011;63012;51.096;-115.366;2023-07-02T09:05:20;5.50;;;1.60;;
74532;SDS011;63012;51.096;-115.366;2023-07-02T09:07:48;5.00;;;1.40;;
74532;SDS011;63012;51.096;-115.366;2023-07-02T09:13:07;5.70;;;1.50;;
74532;SDS011;63012;51.096;-115.366;2023-07-02T09:15:36;5.10;;;1.30;;
74532;SDS011;63012;51.096;-115.366;2023-07-02T09:18:25;5.20;;;1.30;;
74532;SDS011;63012;51.096;-115.366;2023-07-02T09:20:54;4.60;;;1.50;;
74532;SDS011;63012;51.096;-115.366;2023-07-02T09:23:21;4.50;;;1.30;;
74532;SDS011;63012;51.096;-115.366;2023-07-02T09:25:48;3.70;;;0.90;;
74532;SDS011;63012;51.096;-115.366;2023-07-02T09:28:21;4.10;;;0.90;;
74532;SDS011;63012;51.096;-115.366;2023-07-02T09:30:56;4.70;;;1.40;;
74532;SDS011;63012;51.096;-115.366;2023-07-02T09:33:25;4.50;;;1.20;;
74532;SDS011;63012;51.096;-115.366;2023-07-02T09:35:54;4.30;;;1.10;;
74532;SDS011;63012;51.096;-115.366;2023-07-02T09:38:21;3.60;;;1.00;;
74532;SDS011;63012;51.096;-115.366;2023-07-02T09:40:52;4.50;;;1.50;;
74532;SDS011;63012;51.096;-115.366;2023-07-02T09:43:21;4.40;;;1.30;;
74532;SDS011;63012;51.096;-115.366;2023-07-02T09:45:52;4.30;;;1.30;;
74532;SDS011;63012;51.096;-115.366;2023-07-02T09:48:24;4.90;;;1.60;;
74532;SDS011;63012;51.096;-115.366;2023-07-02T09:50:54;5.00;;;1.30;;
74532;SDS011;63012;51.096;-115.366;2023-07-02T09:53:24;4.40;;;1.10;;
74532;SDS011;63012;51.096;-115.366;2023-07-02T09:55:54;10.40;;;1.20;;
74532;SDS011;63012;51.096;-115.366;2023-07-02T09:58:22;4.20;;;1.30;;
74532;SDS011;63012;51.096;-115.366;2023-07-02T10:00:49;5.70;;;1.40;;
74532;SDS011;63012;51.096;-115.366;2023-07-02T10:03:16;7.70;;;0.90;;
74532;SDS011;63012;51.096;-115.366;2023-07-02T10:05:43;3.40;;;1.00;;
74532;SDS011;63012;51.096;-115.366;2023-07-02T10:08:14;4.90;;;1.10;;
74532;SDS011;63012;51.096;-115.366;2023-07-02T10:10:49;5.00;;;1.30;;
74532;SDS011;63012;51.096;-115.366;2023-07-02T10:13:27;3.90;;;0.90;;
74532;SDS011;63012;51.096;-115.366;2023-07-02T10:16:01;5.00;;;1.10;;
74532;SDS011;63012;51.096;-115.366;2023-07-02T10:18:29;3.60;;;1.00;;
74532;SDS011;63012;51.096;-115.366;2023-07-02T10:20:56;5.50;;;1.10;;
74532;SDS011;63012;51.096;-115.366;2023-07-02T10:23:35;3.70;;;1.00;;
74532;SDS011;63012;51.096;-115.366;2023-07-02T10:26:16;4.10;;;1.00;;
74532;SDS011;63012;51.096;-115.366;2023-07-02T10:29:05;4.20;;;0.60;;
74532;SDS011;63012;51.096;-115.366;2023-07-02T10:31:33;5.00;;;1.30;;
74532;SDS011;63012;51.096;-115.366;2023-07-02T10:33:59;4.00;;;0.90;;
74532;SDS011;63012;51.096;-115.366;2023-07-02T10:36:26;4.80;;;1.30;;
74532;SDS011;63012;51.096;-115.366;2023-07-02T10:39:01;6.10;;;0.90;;
74532;SDS011;63012;51.096;-115.366;2023-07-02T10:41:31;4.50;;;1.50;;
74532;SDS011;63012;51.096;-115.366;2023-07-02T10:44:09;4.90;;;0.80;;
74532;SDS011;63012;51.096;-115.366;2023-07-02T10:46:46;4.80;;;1.00;;
74532;SDS011;63012;51.096;-115.366;2023-07-02T10:49:17;4.40;;;1.10;;
74532;SDS011;63012;51.096;-115.366;2023-07-02T10:52:00;4.30;;;1.30;;
74532;SDS011;63012;51.096;-115.366;2023-07-02T10:54:48;4.40;;;1.00;;
74532;SDS011;63012;51.096;-115.366;2023-07-02T10:57:19;3.70;;;0.70;;
74532;SDS011;63012;51.096;-115.366;2023-07-02T10:59:47;4.20;;;1.20;;
74532;SDS011;63012;51.096;-115.366;2023-07-02T11:02:15;3.90;;;0.90;;
74532;SDS011;63012;51.096;-115.366;2023-07-02T11:04:42;4.80;;;0.90;;
74532;SDS011;63012;51.096;-115.366;2023-07-02T11:07:10;4.20;;;1.00;;
74532;SDS011;63012;51.096;-115.366;2023-07-02T11:09:50;3.80;;;0.80;;
74532;SDS011;63012;51.096;-115.366;2023-07-02T11:12:17;4.00;;;1.00;;
74532;SDS011;63012;51.096;-115.366;2023-07-02T11:14:44;3.60;;;1.20;;
74532;SDS011;63012;51.096;-115.366;2023-07-02T11:17:11;3.60;;;0.90;;
74532;SDS011;63012;51.096;-115.366;2023-07-02T11:19:38;3.10;;;0.60;;
74532;SDS011;63012;51.096;-115.366;2023-07-02T11:22:06;3.30;;;0.80;;
74532;SDS011;63012;51.096;-115.366;2023-07-02T11:24:34;3.80;;;0.90;;
74532;SDS011;63012;51.096;-115.366;2023-07-02T11:27:03;5.20;;;1.40;;
74532;SDS011;63012;51.096;-115.366;2023-07-02T11:29:32;3.80;;;1.10;;
74532;SDS011;63012;51.096;-115.366;2023-07-02T11:32:10;7.10;;;1.00;;
74532;SDS011;63012;51.096;-115.366;2023-07-02T11:34:39;3.90;;;0.80;;
74532;SDS011;63012;51.096;-115.366;2023-07-02T11:37:06;5.00;;;1.20;;
74532;SDS011;63012;51.096;-115.366;2023-07-02T11:39:33;4.40;;;0.90;;
74532;SDS011;63012;51.096;-115.366;2023-07-02T11:42:00;4.10;;;0.80;;
74532;SDS011;63012;51.096;-115.366;2023-07-02T11:44:27;4.40;;;1.10;;
74532;SDS011;63012;51.096;-115.366;2023-07-02T11:46:54;4.20;;;1.00;;
74532;SDS011;63012;51.096;-115.366;2023-07-02T11:49:23;4.20;;;1.00;;
74532;SDS011;63012;51.096;-115.366;2023-07-02T11:51:50;4.00;;;1.10;;
74532;SDS011;63012;51.096;-115.366;2023-07-02T11:54:17;5.10;;;1.70;;
74532;SDS011;63012;51.096;-115.366;2023-07-02T11:56:44;3.90;;;1.00;;
74532;SDS011;63012;51.096;-115.366;2023-07-02T11:59:12;4.80;;;0.80;;
74532;SDS011;63012;51.096;-115.366;2023-07-02T12:01:39;4.20;;;1.00;;
74532;SDS011;63012;51.096;-115.366;2023-07-02T12:04:06;3.90;;;0.90;;
74532;SDS011;63012;51.096;-115.366;2023-07-02T12:06:34;3.70;;;1.10;;
74532;SDS011;63012;51.096;-115.366;2023-07-02T12:09:01;3.50;;;0.80;;
74532;SDS011;63012;51.096;-115.366;2023-07-02T12:11:28;4.10;;;1.30;;
74532;SDS011;63012;51.096;-115.366;2023-07-02T12:13:55;7.30;;;1.10;;
74532;SDS011;63012;51.096;-115.366;2023-07-02T12:16:22;3.60;;;1.00;;
74532;SDS011;63012;51.096;-115.366;2023-07-02T12:18:49;3.80;;;1.10;;
74532;SDS011;63012;51.096;-115.366;2023-07-02T12:21:16;4.20;;;1.10;;
74532;SDS011;63012;51.096;-115.366;2023-07-02T12:23:44;4.70;;;1.10;;
74532;SDS011;63012;51.096;-115.366;2023-07-02T12:26:11;7.40;;;0.90;;
74532;SDS011;63012;51.096;-115.366;2023-07-02T12:28:38;5.20;;;1.10;;
74532;SDS011;63012;51.096;-115.366;2023-07-02T12:31:05;4.40;;;1.00;;
74532;SDS011;63012;51.096;-115.366;2023-07-02T12:33:33;3.80;;;0.80;;
74532;SDS011;63012;51.096;-115.366;2023-07-02T12:36:00;5.30;;;1.00;;
74532;SDS011;63012;51.096;-115.366;2023-07-02T12:38:27;5.90;;;1.00;;
74532;SDS011;63012;51.096;-115.366;2023-07-02T12:40:54;5.60;;;1.10;;
74532;SDS011;63012;51.096;-115.366;2023-07-02T12:43:21;6.50;;;1.00;;
74532;SDS011;63012;51.096;-115.366;2023-07-02T12:45:48;4.30;;;0.90;;
74532;SDS011;63012;51.096;-115.366;2023-07-02T12:48:16;4.60;;;0.80;;
74532;SDS011;63012;51.096;-115.366;2023-07-02T12:50:54;3.50;;;0.90;;
74532;SDS011;63012;51.096;-115.366;2023-07-02T12:53:25;3.10;;;0.50;;
74532;SDS011;63012;51.096;-115.366;2023-07-02T12:55:54;3.80;;;0.90;;
74532;SDS011;63012;51.096;-115.366;2023-07-02T12:58:21;4.40;;;0.70;;
74532;SDS011;63012;51.096;-115.366;2023-07-02T13:00:47;5.00;;;1.00;;
74532;SDS011;63012;51.096;-115.366;2023-07-02T13:03:16;3.10;;;0.70;;
74532;SDS011;63012;51.096;-115.366;2023-07-02T13:05:44;4.60;;;0.80;;
74532;SDS011;63012;51.096;-115.366;2023-07-02T13:08:11;3.00;;;0.60;;
74532;SDS011;63012;51.096;-115.366;2023-07-02T13:10:38;4.90;;;0.90;;
74532;SDS011;63012;51.096;-115.366;2023-07-02T13:13:05;3.70;;;0.60;;
74532;SDS011;63012;51.096;-115.366;2023-07-02T13:15:32;3.40;;;0.90;;
74532;SDS011;63012;51.096;-115.366;2023-07-02T13:18:01;3.00;;;0.60;;
74532;SDS011;63012;51.096;-115.366;2023-07-02T13:20:28;3.60;;;0.90;;
74532;SDS011;63012;51.096;-115.366;2023-07-02T13:22:55;2.60;;;0.50;;
74532;SDS011;63012;51.096;-115.366;2023-07-02T13:25:24;4.20;;;0.90;;
74532;SDS011;63012;51.096;-115.366;2023-07-02T13:27:51;2.90;;;0.60;;
74532;SDS011;63012;51.096;-115.366;2023-07-02T13:30:18;2.70;;;0.60;;
74532;SDS011;63012;51.096;-115.366;2023-07-02T13:32:46;2.70;;;0.80;;
74532;SDS011;63012;51.096;-115.366;2023-07-02T13:35:13;3.50;;;0.50;;
74532;SDS011;63012;51.096;-115.366;2023-07-02T13:37:40;5.60;;;0.70;;
74532;SDS011;63012;51.096;-115.366;2023-07-02T13:40:08;3.30;;;0.60;;
74532;SDS011;63012;51.096;-115.366;2023-07-02T13:42:39;4.80;;;0.50;;
74532;SDS011;63012;51.096;-115.366;2023-07-02T13:45:06;2.90;;;0.80;;
74532;SDS011;63012;51.096;-115.366;2023-07-02T13:47:34;2.60;;;0.50;;
74532;SDS011;63012;51.096;-115.366;2023-07-02T13:50:03;3.00;;;0.50;;
74532;SDS011;63012;51.096;-115.366;2023-07-02T13:52:30;2.40;;;0.30;;
74532;SDS011;63012;51.096;-115.366;2023-07-02T13:54:58;4.30;;;0.70;;
74532;SDS011;63012;51.096;-115.366;2023-07-02T13:57:25;3.20;;;0.50;;
74532;SDS011;63012;51.096;-115.366;2023-07-02T13:59:52;2.80;;;0.40;;
74532;SDS011;63012;51.096;-115.366;2023-07-02T14:02:19;3.10;;;0.40;;
74532;SDS011;63012;51.096;-115.366;2023-07-02T14:04:46;2.80;;;0.70;;
74532;SDS011;63012;51.096;-115.366;2023-07-02T14:07:13;3.00;;;0.60;;
74532;SDS011;63012;51.096;-115.366;2023-07-02T14:09:40;4.30;;;0.70;;
74532;SDS011;63012;51.096;-115.366;2023-07-02T14:12:08;3.50;;;0.80;;
74532;SDS011;63012;51.096;-115.366;2023-07-02T14:14:34;4.00;;;0.60;;
74532;SDS011;63012;51.096;-115.366;2023-07-02T14:17:01;4.70;;;0.50;;